sensor_id;sensor_type;location;lat;lon;timestamp;P1;durP1;ratioP1;P2;durP2;ratioP2
9224;SDS011;4647;48.072;11.616;2024-01-15T00:00:32;7.47;;;6.43;;
9224;SDS011;4647;48.072;11.616;2024-01-15T00:03:01;9.57;;;7.13;;
9224;SDS011;4647;48.072;11.616;2024-01-15T00:05:30;8.43;;;6.63;;
9224;SDS011;4647;48.072;11.616;2024-01-15T00:08:01;7.30;;;5.97;;
9224;SDS011;4647;48.072;11.616;2024-01-15T00:10:29;8.10;;;6.33;;
9224;SDS011;4647;48.072;11.616;2024-01-15T00:12:58;8.47;;;6.57;;
9224;SDS011;4647;48.072;11.616;2024-01-15T00:15:26;7.97;;;6.53;;
9224;SDS011;4647;48.072;11.616;2024-01-15T00:17:55;8.13;;;6.20;;
9224;SDS011;4647;48.072;11.616;2024-01-15T00:20:23;8.27;;;6.63;;
9224;SDS011;4647;48.072;11.616;2024-01-15T00:22:52;9.17;;;6.73;;
9224;SDS011;4647;48.072;11.616;2024-01-15T00:25:23;7.90;;;6.63;;
9224;SDS011;4647;48.072;11.616;2024-01-15T00:27:51;8.37;;;6.53;;
9224;SDS011;4647;48.072;11.616;2024-01-15T00:30:20;8.63;;;6.73;;
9224;SDS011;4647;48.072;11.616;2024-01-15T00:32:48;8.47;;;7.03;;
9224;SDS011;4647;48.072;11.616;2024-01-15T00:35:17;8.73;;;7.40;;
9224;SDS011;4647;48.072;11.616;2024-01-15T00:37:45;9.37;;;7.90;;
9224;SDS011;4647;48.072;11.616;2024-01-15T00:40:14;9.40;;;7.87;;
9224;SDS011;4647;48.072;11.616;2024-01-15T00:42:45;9.27;;;7.50;;
9224;SDS011;4647;48.072;11.616;2024-01-15T00:45:14;10.27;;;7.57;;
9224;SDS011;4647;48.072;11.616;2024-01-15T00:47:42;10.17;;;7.23;;
9224;SDS011;4647;48.072;11.616;2024-01-15T00:50:11;10.07;;;7.80;;
9224;SDS011;4647;48.072;11.616;2024-01-15T00:52:39;9.63;;;8.33;;
9224;SDS011;4647;48.072;11.616;2024-01-15T00:55:08;10.40;;;7.40;;
9224;SDS011;4647;48.072;11.616;2024-01-15T00:57:39;9.97;;;7.97;;
9224;SDS011;4647;48.072;11.616;2024-01-15T01:00:11;10.93;;;8.13;;
9224;SDS011;4647;48.072;11.616;2024-01-15T01:02:40;14.37;;;9.63;;
9224;SDS011;4647;48.072;11.616;2024-01-15T01:05:09;12.73;;;8.87;;
9224;SDS011;4647;48.072;11.616;2024-01-15T01:07:37;12.17;;;9.17;;
9224;SDS011;4647;48.072;11.616;2024-01-15T01:10:06;12.77;;;9.70;;
9224;SDS011;4647;48.072;11.616;2024-01-15T01:12:35;14.30;;;9.57;;
9224;SDS011;4647;48.072;11.616;2024-01-15T01:15:05;13.60;;;10.53;;
9224;SDS011;4647;48.072;11.616;2024-01-15T01:17:36;13.03;;;10.40;;
9224;SDS011;4647;48.072;11.616;2024-01-15T01:20:05;14.23;;;10.67;;
9224;SDS011;4647;48.072;11.616;2024-01-15T01:22:35;13.47;;;10.43;;
9224;SDS011;4647;48.072;11.616;2024-01-15T01:25:04;13.60;;;10.53;;
9224;SDS011;4647;48.072;11.616;2024-01-15T01:27:34;13.23;;;9.97;;
9224;SDS011;4647;48.072;11.616;2024-01-15T01:30:04;14.00;;;11.37;;
9224;SDS011;4647;48.072;11.616;2024-01-15T01:32:37;15.30;;;10.60;;
9224;SDS011;4647;48.072;11.616;2024-01-15T01:35:05;15.13;;;12.00;;
9224;SDS011;4647;48.072;11.616;2024-01-15T01:37:34;17.60;;;12.63;;
9224;SDS011;4647;48.072;11.616;2024-01-15T01:40:03;15.67;;;12.50;;
9224;SDS011;4647;48.072;11.616;2024-01-15T01:42:32;16.17;;;11.93;;
9224;SDS011;4647;48.072;11.616;2024-01-15T01:45:01;17.87;;;12.90;;
9224;SDS011;4647;48.072;11.616;2024-01-15T01:47:29;22.53;;;13.57;;
9224;SDS011;4647;48.072;11.616;2024-01-15T01:50:00;16.63;;;12.27;;
9224;SDS011;4647;48.072;11.616;2024-01-15T01:52:30;15.73;;;12.47;;
9224;SDS011;4647;48.072;11.616;2024-01-15T01:54:59;14.63;;;10.67;;
9224;SDS011;4647;48.072;11.616;2024-01-15T01:57:30;16.50;;;12.67;;
9224;SDS011;4647;48.072;11.616;2024-01-15T02:00:01;17.90;;;13.50;;
9224;SDS011;4647;48.072;11.616;2024-01-15T02:02:31;17.07;;;12.87;;
9224;SDS011;4647;48.072;11.616;2024-01-15T02:05:04;17.03;;;12.23;;
9224;SDS011;4647;48.072;11.616;2024-01-15T02:07:34;17.50;;;12.97;;
9224;SDS011;4647;48.072;11.616;2024-01-15T02:10:03;19.73;;;13.00;;
9224;SDS011;4647;48.072;11.616;2024-01-15T02:12:31;19.73;;;13.90;;
9224;SDS011;4647;48.072;11.616;2024-01-15T02:15:00;17.40;;;13.00;;
9224;SDS011;4647;48.072;11.616;2024-01-15T02:17:29;14.17;;;10.57;;
9224;SDS011;4647;48.072;11.616;2024-01-15T02:19:57;16.50;;;12.40;;
9224;SDS011;4647;48.072;11.616;2024-01-15T02:22:28;17.20;;;12.80;;
9224;SDS011;4647;48.072;11.616;2024-01-15T02:24:59;16.03;;;12.50;;
9224;SDS011;4647;48.072;11.616;2024-01-15T02:27:29;12.07;;;8.93;;
9224;SDS011;4647;48.072;11.616;2024-01-15T02:29:57;15.57;;;11.27;;
9224;SDS011;4647;48.072;11.616;2024-01-15T02:32:26;16.20;;;12.47;;
9224;SDS011;4647;48.072;11.616;2024-01-15T02:34:54;14.73;;;12.10;;
9224;SDS011;4647;48.072;11.616;2024-01-15T02:37:25;15.03;;;12.47;;
9224;SDS011;4647;48.072;11.616;2024-01-15T02:39:53;15.10;;;12.07;;
9224;SDS011;4647;48.072;11.616;2024-01-15T02:42:24;15.97;;;12.50;;
9224;SDS011;4647;48.072;11.616;2024-01-15T02:44:54;15.40;;;12.23;;
9224;SDS011;4647;48.072;11.616;2024-01-15T02:47:22;15.30;;;11.47;;
9224;SDS011;4647;48.072;11.616;2024-01-15T02:49:51;14.97;;;12.10;;
9224;SDS011;4647;48.072;11.616;2024-01-15T02:52:19;16.33;;;12.03;;
9224;SDS011;4647;48.072;11.616;2024-01-15T02:54:48;16.37;;;12.27;;
9224;SDS011;4647;48.072;11.616;2024-01-15T02:57:16;17.50;;;12.80;;
9224;SDS011;4647;48.072;11.616;2024-01-15T02:59:47;19.17;;;11.87;;
9224;SDS011;4647;48.072;11.616;2024-01-15T03:02:16;16.73;;;12.03;;
9224;SDS011;4647;48.072;11.616;2024-01-15T03:04:45;16.93;;;12.20;;
9224;SDS011;4647;48.072;11.616;2024-01-15T03:07:13;14.77;;;11.83;;
9224;SDS011;4647;48.072;11.616;2024-01-15T03:09:42;15.83;;;10.87;;
9224;SDS011;4647;48.072;11.616;2024-01-15T03:12:10;15.57;;;12.03;;
9224;SDS011;4647;48.072;11.616;2024-01-15T03:14:39;15.70;;;11.53;;
9224;SDS011;4647;48.072;11.616;2024-01-15T03:17:10;13.30;;;10.73;;
9224;SDS011;4647;48.072;11.616;2024-01-15T03:19:38;15.50;;;11.10;;
9224;SDS011;4647;48.072;11.616;2024-01-15T03:22:07;12.40;;;9.73;;
9224;SDS011;4647;48.072;11.616;2024-01-15T03:24:35;12.13;;;9.67;;
9224;SDS011;4647;48.072;11.616;2024-01-15T03:27:04;13.07;;;9.57;;
9224;SDS011;4647;48.072;11.616;2024-01-15T03:29:33;12.57;;;9.47;;
9224;SDS011;4647;48.072;11.616;2024-01-15T03:32:01;11.67;;;9.07;;
9224;SDS011;4647;48.072;11.616;2024-01-15T03:34:32;12.97;;;9.40;;
9224;SDS011;4647;48.072;11.616;2024-01-15T03:37:01;12.50;;;9.10;;
9224;SDS011;4647;48.072;11.616;2024-01-15T03:39:30;13.67;;;9.77;;
9224;SDS011;4647;48.072;11.616;2024-01-15T03:41:58;12.60;;;9.77;;
9224;SDS011;4647;48.072;11.616;2024-01-15T03:44:26;12.53;;;9.57;;
9224;SDS011;4647;48.072;11.616;2024-01-15T03:46:55;11.90;;;9.63;;
9224;SDS011;4647;48.072;11.616;2024-01-15T03:49:24;11.70;;;8.83;;
9224;SDS011;4647;48.072;11.616;2024-01-15T03:51:55;12.07;;;9.50;;
9224;SDS011;4647;48.072;11.616;2024-01-15T03:54:23;10.47;;;8.53;;
9224;SDS011;4647;48.072;11.616;2024-01-15T03:56:52;12.50;;;9.47;;
9224;SDS011;4647;48.072;11.616;2024-01-15T03:59:20;12.00;;;9.20;;
9224;SDS011;4647;48.072;11.616;2024-01-15T04:01:48;11.40;;;9.27;;
9224;SDS011;4647;48.072;11.616;2024-01-15T04:04:18;11.87;;;9.87;;
9224;SDS011;4647;48.072;11.616;2024-01-15T04:06:46;11.50;;;9.33;;
9224;SDS011;4647;48.072;11.616;2024-01-15T04:09:17;11.57;;;8.67;;
9224;SDS011;4647;48.072;11.616;2024-01-15T04:11:46;11.97;;;9.47;;
9224;SDS011;4647;48.072;11.616;2024-01-15T04:14:15;11.20;;;8.90;;
9224;SDS011;4647;48.072;11.616;2024-01-15T04:16:43;11.90;;;9.23;;
9224;SDS011;4647;48.072;11.616;2024-01-15T04:19:12;11.47;;;8.83;;
9224;SDS011;4647;48.072;11.616;2024-01-15T04:21:40;11.17;;;8.60;;
9224;SDS011;4647;48.072;11.616;2024-01-15T04:24:09;11.63;;;9.00;;
9224;SDS011;4647;48.072;11.616;2024-01-15T04:26:40;10.47;;;8.77;;
9224;SDS011;4647;48.072;11.616;2024-01-15T04:29:08;11.33;;;9.20;;
9224;SDS011;4647;48.072;11.616;2024-01-15T04:31:37;10.93;;;8.53;;
9224;SDS011;4647;48.072;11.616;2024-01-15T04:34:05;11.73;;;8.73;;
9224;SDS011;4647;48.072;11.616;2024-01-15T04:36:38;12.40;;;8.47;;
9224;SDS011;4647;48.072;11.616;2024-01-15T04:39:06;11.70;;;9.20;;
9224;SDS011;4647;48.072;11.616;2024-01-15T04:41:36;10.53;;;8.40;;
9224;SDS011;4647;48.072;11.616;2024-01-15T04:44:08;11.23;;;8.33;;
9224;SDS011;4647;48.072;11.616;2024-01-15T04:46:36;11.60;;;8.70;;
9224;SDS011;4647;48.072;11.616;2024-01-15T04:49:05;11.53;;;9.67;;
9224;SDS011;4647;48.072;11.616;2024-01-15T04:51:33;11.33;;;8.80;;
9224;SDS011;4647;48.072;11.616;2024-01-15T04:54:03;11.73;;;8.33;;
9224;SDS011;4647;48.072;11.616;2024-01-15T04:56:31;10.30;;;7.87;;
9224;SDS011;4647;48.072;11.616;2024-01-15T04:59:00;9.03;;;7.57;;
9224;SDS011;4647;48.072;11.616;2024-01-15T05:01:33;8.80;;;7.57;;
9224;SDS011;4647;48.072;11.616;2024-01-15T05:04:01;8.67;;;7.00;;
9224;SDS011;4647;48.072;11.616;2024-01-15T05:06:30;9.40;;;7.37;;
9224;SDS011;4647;48.072;11.616;2024-01-15T05:08:58;12.03;;;7.97;;
9224;SDS011;4647;48.072;11.616;2024-01-15T05:11:27;8.80;;;7.37;;
9224;SDS011;4647;48.072;11.616;2024-01-15T05:13:56;8.63;;;7.23;;
9224;SDS011;4647;48.072;11.616;2024-01-15T05:16:26;8.17;;;6.23;;
9224;SDS011;4647;48.072;11.616;2024-01-15T05:18:57;10.07;;;7.23;;
9224;SDS011;4647;48.072;11.616;2024-01-15T05:21:25;11.77;;;7.63;;
9224;SDS011;4647;48.072;11.616;2024-01-15T05:23:53;15.20;;;9.20;;
9224;SDS011;4647;48.072;11.616;2024-01-15T05:26:22;13.33;;;8.53;;
9224;SDS011;4647;48.072;11.616;2024-01-15T05:28:50;9.53;;;7.10;;
9224;SDS011;4647;48.072;11.616;2024-01-15T05:31:19;6.80;;;6.07;;
9224;SDS011;4647;48.072;11.616;2024-01-15T05:33:48;9.53;;;6.57;;
9224;SDS011;4647;48.072;11.616;2024-01-15T05:36:19;8.60;;;6.67;;
9224;SDS011;4647;48.072;11.616;2024-01-15T05:38:47;6.83;;;6.00;;
9224;SDS011;4647;48.072;11.616;2024-01-15T05:41:16;8.30;;;6.50;;
9224;SDS011;4647;48.072;11.616;2024-01-15T05:43:44;8.37;;;6.70;;
9224;SDS011;4647;48.072;11.616;2024-01-15T05:46:13;8.43;;;6.60;;
9224;SDS011;4647;48.072;11.616;2024-01-15T05:48:41;8.50;;;6.80;;
9224;SDS011;4647;48.072;11.616;2024-01-15T05:51:10;8.63;;;6.40;;
9224;SDS011;4647;48.072;11.616;2024-01-15T05:53:41;10.03;;;7.50;;
9224;SDS011;4647;48.072;11.616;2024-01-15T05:56:09;9.83;;;6.53;;
9224;SDS011;4647;48.072;11.616;2024-01-15T05:58:38;9.43;;;7.00;;
9224;SDS011;4647;48.072;11.616;2024-01-15T06:01:06;8.93;;;7.17;;
9224;SDS011;4647;48.072;11.616;2024-01-15T06:03:35;9.13;;;6.63;;
9224;SDS011;4647;48.072;11.616;2024-01-15T06:06:03;9.10;;;7.33;;
9224;SDS011;4647;48.072;11.616;2024-01-15T06:08:32;9.43;;;7.37;;
9224;SDS011;4647;48.072;11.616;2024-01-15T06:11:04;9.10;;;6.97;;
9224;SDS011;4647;48.072;11.616;2024-01-15T06:13:32;11.77;;;7.23;;
9224;SDS011;4647;48.072;11.616;2024-01-15T06:16:01;8.80;;;7.47;;
9224;SDS011;4647;48.072;11.616;2024-01-15T06:18:29;8.27;;;7.40;;
9224;SDS011;4647;48.072;11.616;2024-01-15T06:20:57;9.73;;;7.47;;
9224;SDS011;4647;48.072;11.616;2024-01-15T06:23:26;8.67;;;7.20;;
9224;SDS011;4647;48.072;11.616;2024-01-15T06:25:54;10.40;;;6.80;;
9224;SDS011;4647;48.072;11.616;2024-01-15T06:28:25;10.43;;;8.30;;
9224;SDS011;4647;48.072;11.616;2024-01-15T06:30:54;9.33;;;7.20;;
9224;SDS011;4647;48.072;11.616;2024-01-15T06:33:23;9.63;;;7.30;;
9224;SDS011;4647;48.072;11.616;2024-01-15T06:35:52;9.60;;;7.43;;
9224;SDS011;4647;48.072;11.616;2024-01-15T06:38:21;8.40;;;7.27;;
9224;SDS011;4647;48.072;11.616;2024-01-15T06:40:50;9.63;;;7.70;;
9224;SDS011;4647;48.072;11.616;2024-01-15T06:43:18;10.33;;;7.47;;
9224;SDS011;4647;48.072;11.616;2024-01-15T06:45:49;10.17;;;7.70;;
9224;SDS011;4647;48.072;11.616;2024-01-15T06:48:18;9.10;;;7.13;;
9224;SDS011;4647;48.072;11.616;2024-01-15T06:50:46;10.03;;;7.57;;
9224;SDS011;4647;48.072;11.616;2024-01-15T06:53:15;11.03;;;8.17;;
9224;SDS011;4647;48.072;11.616;2024-01-15T06:55:44;10.03;;;7.33;;
9224;SDS011;4647;48.072;11.616;2024-01-15T06:58:12;10.87;;;7.87;;
9224;SDS011;4647;48.072;11.616;2024-01-15T07:00:41;10.40;;;7.50;;
9224;SDS011;4647;48.072;11.616;2024-01-15T07:03:12;9.07;;;7.53;;
9224;SDS011;4647;48.072;11.616;2024-01-15T07:05:40;9.57;;;7.50;;
9224;SDS011;4647;48.072;11.616;2024-01-15T07:08:09;11.07;;;7.70;;
9224;SDS011;4647;48.072;11.616;2024-01-15T07:10:37;8.77;;;6.47;;
9224;SDS011;4647;48.072;11.616;2024-01-15T07:13:06;9.13;;;7.47;;
9224;SDS011;4647;48.072;11.616;2024-01-15T07:15:34;8.70;;;7.17;;
9224;SDS011;4647;48.072;11.616;2024-01-15T07:18:03;9.03;;;7.60;;
9224;SDS011;4647;48.072;11.616;2024-01-15T07:20:35;8.80;;;6.97;;
9224;SDS011;4647;48.072;11.616;2024-01-15T07:23:03;8.70;;;7.47;;
9224;SDS011;4647;48.072;11.616;2024-01-15T07:25:32;9.47;;;7.57;;
9224;SDS011;4647;48.072;11.616;2024-01-15T07:28:00;9.07;;;7.40;;
9224;SDS011;4647;48.072;11.616;2024-01-15T07:30:29;9.93;;;7.47;;
9224;SDS011;4647;48.072;11.616;2024-01-15T07:32:57;10.33;;;8.27;;
9224;SDS011;4647;48.072;11.616;2024-01-15T07:35:26;10.67;;;8.30;;
9224;SDS011;4647;48.072;11.616;2024-01-15T07:37:57;9.20;;;7.80;;
9224;SDS011;4647;48.072;11.616;2024-01-15T07:40:25;9.60;;;7.70;;
9224;SDS011;4647;48.072;11.616;2024-01-15T07:42:53;9.57;;;8.00;;
9224;SDS011;4647;48.072;11.616;2024-01-15T07:45:22;10.23;;;8.60;;
9224;SDS011;4647;48.072;11.616;2024-01-15T07:47:50;10.40;;;8.47;;
9224;SDS011;4647;48.072;11.616;2024-01-15T07:50:19;11.53;;;8.50;;
9224;SDS011;4647;48.072;11.616;2024-01-15T07:52:48;9.90;;;7.77;;
9224;SDS011;4647;48.072;11.616;2024-01-15T07:55:20;10.50;;;7.90;;
9224;SDS011;4647;48.072;11.616;2024-01-15T07:57:49;9.33;;;7.63;;
9224;SDS011;4647;48.072;11.616;2024-01-15T08:00:18;11.13;;;8.00;;
9224;SDS011;4647;48.072;11.616;2024-01-15T08:02:47;9.37;;;8.03;;
9224;SDS011;4647;48.072;11.616;2024-01-15T08:05:16;9.53;;;8.00;;
9224;SDS011;4647;48.072;11.616;2024-01-15T08:07:45;10.20;;;7.80;;
9224;SDS011;4647;48.072;11.616;2024-01-15T08:10:14;9.43;;;7.90;;
9224;SDS011;4647;48.072;11.616;2024-01-15T08:12:42;9.67;;;7.63;;
9224;SDS011;4647;48.072;11.616;2024-01-15T08:15:11;9.47;;;7.83;;
9224;SDS011;4647;48.072;11.616;2024-01-15T08:17:39;10.03;;;8.17;;
9224;SDS011;4647;48.072;11.616;2024-01-15T08:20:08;10.80;;;7.23;;
9224;SDS011;4647;48.072;11.616;2024-01-15T08:22:38;8.93;;;7.30;;
9224;SDS011;4647;48.072;11.616;2024-01-15T08:25:07;12.40;;;7.90;;
9224;SDS011;4647;48.072;11.616;2024-01-15T08:27:38;9.80;;;7.77;;
9224;SDS011;4647;48.072;11.616;2024-01-15T08:30:12;10.77;;;7.97;;
9224;SDS011;4647;48.072;11.616;2024-01-15T08:32:41;9.77;;;7.83;;
9224;SDS011;4647;48.072;11.616;2024-01-15T08:35:09;9.70;;;7.87;;
9224;SDS011;4647;48.072;11.616;2024-01-15T08:37:38;8.30;;;7.00;;
9224;SDS011;4647;48.072;11.616;2024-01-15T08:40:07;9.30;;;7.37;;
9224;SDS011;4647;48.072;11.616;2024-01-15T08:42:36;9.97;;;8.33;;
9224;SDS011;4647;48.072;11.616;2024-01-15T08:45:05;9.87;;;8.40;;
9224;SDS011;4647;48.072;11.616;2024-01-15T08:47:36;9.67;;;7.87;;
9224;SDS011;4647;48.072;11.616;2024-01-15T08:50:05;9.73;;;7.97;;
9224;SDS011;4647;48.072;11.616;2024-01-15T08:52:35;10.40;;;8.00;;
9224;SDS011;4647;48.072;11.616;2024-01-15T08:55:04;10.60;;;8.10;;
9224;SDS011;4647;48.072;11.616;2024-01-15T08:57:32;10.30;;;7.57;;
9224;SDS011;4647;48.072;11.616;2024-01-15T09:00:01;9.50;;;7.77;;
9224;SDS011;4647;48.072;11.616;2024-01-15T09:02:36;8.63;;;7.73;;
9224;SDS011;4647;48.072;11.616;2024-01-15T09:05:04;10.10;;;8.95;;
9224;SDS011;4647;48.072;11.616;2024-01-15T09:07:33;10.37;;;8.33;;
9224;SDS011;4647;48.072;11.616;2024-01-15T09:10:01;10.10;;;8.60;;
9224;SDS011;4647;48.072;11.616;2024-01-15T09:12:30;10.40;;;7.80;;
9224;SDS011;4647;48.072;11.616;2024-01-15T09:14:58;9.80;;;8.10;;
9224;SDS011;4647;48.072;11.616;2024-01-15T09:17:29;10.27;;;7.83;;
9224;SDS011;4647;48.072;11.616;2024-01-15T09:20:00;11.17;;;8.40;;
9224;SDS011;4647;48.072;11.616;2024-01-15T09:22:29;11.03;;;9.03;;
9224;SDS011;4647;48.072;11.616;2024-01-15T09:24:58;10.97;;;8.97;;
9224;SDS011;4647;48.072;11.616;2024-01-15T09:27:26;11.00;;;9.23;;
9224;SDS011;4647;48.072;11.616;2024-01-15T09:29:55;11.97;;;9.10;;
9224;SDS011;4647;48.072;11.616;2024-01-15T09:32:23;10.73;;;8.87;;
9224;SDS011;4647;48.072;11.616;2024-01-15T09:34:52;10.03;;;8.50;;
9224;SDS011;4647;48.072;11.616;2024-01-15T09:37:23;9.30;;;7.93;;
9224;SDS011;4647;48.072;11.616;2024-01-15T09:39:52;9.37;;;8.00;;
9224;SDS011;4647;48.072;11.616;2024-01-15T09:42:21;8.27;;;7.03;;
9224;SDS011;4647;48.072;11.616;2024-01-15T09:44:50;8.80;;;6.63;;
9224;SDS011;4647;48.072;11.616;2024-01-15T09:47:19;8.73;;;6.70;;
9224;SDS011;4647;48.072;11.616;2024-01-15T09:49:49;9.23;;;7.00;;
9224;SDS011;4647;48.072;11.616;2024-01-15T09:52:18;7.33;;;6.57;;
9224;SDS011;4647;48.072;11.616;2024-01-15T09:54:50;7.67;;;6.77;;
9224;SDS011;4647;48.072;11.616;2024-01-15T09:57:19;8.73;;;6.77;;
9224;SDS011;4647;48.072;11.616;2024-01-15T09:59:48;9.03;;;6.47;;
9224;SDS011;4647;48.072;11.616;2024-01-15T10:02:19;6.57;;;5.53;;
9224;SDS011;4647;48.072;11.616;2024-01-15T10:04:48;9.20;;;6.83;;
9224;SDS011;4647;48.072;11.616;2024-01-15T10:07:17;8.73;;;5.83;;
9224;SDS011;4647;48.072;11.616;2024-01-15T10:09:51;6.90;;;6.10;;
9224;SDS011;4647;48.072;11.616;2024-01-15T10:12:19;7.00;;;5.30;;
9224;SDS011;4647;48.072;11.616;2024-01-15T10:14:50;6.90;;;5.37;;
9224;SDS011;4647;48.072;11.616;2024-01-15T10:17:19;6.40;;;5.13;;
9224;SDS011;4647;48.072;11.616;2024-01-15T10:19:49;5.50;;;4.90;;
9224;SDS011;4647;48.072;11.616;2024-01-15T10:22:17;6.07;;;5.07;;
9224;SDS011;4647;48.072;11.616;2024-01-15T10:24:52;6.40;;;5.10;;
9224;SDS011;4647;48.072;11.616;2024-01-15T10:27:20;6.10;;;4.70;;
9224;SDS011;4647;48.072;11.616;2024-01-15T10:29:49;5.50;;;4.90;;
9224;SDS011;4647;48.072;11.616;2024-01-15T10:32:19;5.30;;;4.27;;
9224;SDS011;4647;48.072;11.616;2024-01-15T10:34:49;4.73;;;4.10;;
9224;SDS011;4647;48.072;11.616;2024-01-15T10:37:20;5.77;;;4.63;;
9224;SDS011;4647;48.072;11.616;2024-01-15T10:39:52;5.53;;;4.33;;
9224;SDS011;4647;48.072;11.616;2024-01-15T10:42:22;6.67;;;4.83;;
9224;SDS011;4647;48.072;11.616;2024-01-15T10:44:51;7.37;;;4.80;;
9224;SDS011;4647;48.072;11.616;2024-01-15T10:47:20;5.70;;;4.43;;
9224;SDS011;4647;48.072;11.616;2024-01-15T10:49:48;6.30;;;4.37;;
9224;SDS011;4647;48.072;11.616;2024-01-15T10:52:18;5.37;;;3.93;;
9224;SDS011;4647;48.072;11.616;2024-01-15T10:54:46;5.47;;;4.67;;
9224;SDS011;4647;48.072;11.616;2024-01-15T10:57:19;4.43;;;3.70;;
9224;SDS011;4647;48.072;11.616;2024-01-15T10:59:49;5.23;;;3.90;;
9224;SDS011;4647;48.072;11.616;2024-01-15T11:02:17;4.93;;;3.90;;
9224;SDS011;4647;48.072;11.616;2024-01-15T11:04:46;5.88;;;3.80;;
9224;SDS011;4647;48.072;11.616;2024-01-15T11:07:15;4.67;;;3.80;;
9224;SDS011;4647;48.072;11.616;2024-01-15T11:09:43;4.30;;;3.50;;
9224;SDS011;4647;48.072;11.616;2024-01-15T11:12:13;4.67;;;3.50;;
9224;SDS011;4647;48.072;11.616;2024-01-15T11:14:49;4.40;;;3.60;;
9224;SDS011;4647;48.072;11.616;2024-01-15T11:17:19;4.10;;;3.20;;
9224;SDS011;4647;48.072;11.616;2024-01-15T11:19:48;3.73;;;3.23;;
9224;SDS011;4647;48.072;11.616;2024-01-15T11:25:18;4.03;;;3.17;;
9224;SDS011;4647;48.072;11.616;2024-01-15T11:27:47;3.80;;;3.00;;
9224;SDS011;4647;48.072;11.616;2024-01-15T11:30:20;3.97;;;2.80;;
9224;SDS011;4647;48.072;11.616;2024-01-15T11:32:52;3.93;;;3.00;;
9224;SDS011;4647;48.072;11.616;2024-01-15T11:35:21;4.43;;;3.10;;
9224;SDS011;4647;48.072;11.616;2024-01-15T11:37:58;5.13;;;3.00;;
9224;SDS011;4647;48.072;11.616;2024-01-15T11:40:36;3.70;;;3.10;;
9224;SDS011;4647;48.072;11.616;2024-01-15T11:43:07;4.67;;;3.50;;
9224;SDS011;4647;48.072;11.616;2024-01-15T11:45:40;4.60;;;3.50;;
9224;SDS011;4647;48.072;11.616;2024-01-15T11:48:11;4.07;;;3.30;;
9224;SDS011;4647;48.072;11.616;2024-01-15T11:50:43;4.77;;;3.73;;
9224;SDS011;4647;48.072;11.616;2024-01-15T11:53:18;6.03;;;3.70;;
9224;SDS011;4647;48.072;11.616;2024-01-15T11:55:57;4.73;;;3.53;;
9224;SDS011;4647;48.072;11.616;2024-01-15T11:58:26;4.67;;;3.53;;
9224;SDS011;4647;48.072;11.616;2024-01-15T12:00:57;4.83;;;3.60;;
9224;SDS011;4647;48.072;11.616;2024-01-15T12:03:26;5.70;;;3.57;;
9224;SDS011;4647;48.072;11.616;2024-01-15T12:05:54;4.57;;;3.40;;
9224;SDS011;4647;48.072;11.616;2024-01-15T12:08:25;4.93;;;3.47;;
9224;SDS011;4647;48.072;11.616;2024-01-15T12:10:53;3.60;;;3.30;;
9224;SDS011;4647;48.072;11.616;2024-01-15T12:13:22;5.77;;;3.30;;
9224;SDS011;4647;48.072;11.616;2024-01-15T12:15:50;5.53;;;3.17;;
9224;SDS011;4647;48.072;11.616;2024-01-15T12:18:21;4.53;;;3.07;;
9224;SDS011;4647;48.072;11.616;2024-01-15T12:20:50;3.10;;;2.70;;
9224;SDS011;4647;48.072;11.616;2024-01-15T12:23:23;3.90;;;2.97;;
9224;SDS011;4647;48.072;11.616;2024-01-15T12:25:52;4.97;;;3.10;;
9224;SDS011;4647;48.072;11.616;2024-01-15T12:28:21;5.80;;;3.23;;
9224;SDS011;4647;48.072;11.616;2024-01-15T12:30:49;3.73;;;2.83;;
9224;SDS011;4647;48.072;11.616;2024-01-15T12:33:18;5.50;;;3.20;;
9224;SDS011;4647;48.072;11.616;2024-01-15T12:35:52;4.63;;;3.30;;
9224;SDS011;4647;48.072;11.616;2024-01-15T12:38:21;4.17;;;3.10;;
9224;SDS011;4647;48.072;11.616;2024-01-15T12:40:49;3.00;;;2.70;;
9224;SDS011;4647;48.072;11.616;2024-01-15T12:43:18;4.10;;;3.10;;
9224;SDS011;4647;48.072;11.616;2024-01-15T12:45:46;3.70;;;2.80;;
9224;SDS011;4647;48.072;11.616;2024-01-15T12:48:15;4.10;;;2.80;;
9224;SDS011;4647;48.072;11.616;2024-01-15T12:50:44;3.73;;;3.00;;
9224;SDS011;4647;48.072;11.616;2024-01-15T12:53:16;3.63;;;3.07;;
9224;SDS011;4647;48.072;11.616;2024-01-15T12:55:46;3.50;;;3.03;;
9224;SDS011;4647;48.072;11.616;2024-01-15T12:58:14;4.07;;;3.33;;
9224;SDS011;4647;48.072;11.616;2024-01-15T13:00:45;4.60;;;3.43;;
9224;SDS011;4647;48.072;11.616;2024-01-15T13:03:13;5.67;;;4.10;;
9224;SDS011;4647;48.072;11.616;2024-01-15T13:05:42;4.13;;;3.60;;
9224;SDS011;4647;48.072;11.616;2024-01-15T13:08:11;4.73;;;3.10;;
9224;SDS011;4647;48.072;11.616;2024-01-15T13:10:41;4.40;;;3.70;;
9224;SDS011;4647;48.072;11.616;2024-01-15T13:13:10;4.77;;;4.00;;
9224;SDS011;4647;48.072;11.616;2024-01-15T13:15:38;5.10;;;4.10;;
9224;SDS011;4647;48.072;11.616;2024-01-15T13:18:09;5.40;;;4.17;;
9224;SDS011;4647;48.072;11.616;2024-01-15T13:20:37;6.23;;;3.87;;
9224;SDS011;4647;48.072;11.616;2024-01-15T13:23:06;5.20;;;4.27;;
9224;SDS011;4647;48.072;11.616;2024-01-15T13:25:35;5.80;;;4.33;;
9224;SDS011;4647;48.072;11.616;2024-01-15T13:28:06;5.93;;;4.13;;
9224;SDS011;4647;48.072;11.616;2024-01-15T13:30:35;5.63;;;4.33;;
9224;SDS011;4647;48.072;11.616;2024-01-15T13:33:03;5.27;;;4.37;;
9224;SDS011;4647;48.072;11.616;2024-01-15T13:35:33;4.90;;;4.40;;
9224;SDS011;4647;48.072;11.616;2024-01-15T13:38:03;6.17;;;4.10;;
9224;SDS011;4647;48.072;11.616;2024-01-15T13:40:34;4.37;;;3.70;;
9224;SDS011;4647;48.072;11.616;2024-01-15T13:43:02;4.93;;;3.93;;
9224;SDS011;4647;48.072;11.616;2024-01-15T13:45:36;6.33;;;3.77;;
9224;SDS011;4647;48.072;11.616;2024-01-15T13:48:04;4.40;;;4.00;;
9224;SDS011;4647;48.072;11.616;2024-01-15T13:50:33;4.27;;;3.70;;
9224;SDS011;4647;48.072;11.616;2024-01-15T13:53:02;5.23;;;4.17;;
9224;SDS011;4647;48.072;11.616;2024-01-15T13:55:31;6.27;;;4.23;;
9224;SDS011;4647;48.072;11.616;2024-01-15T13:58:00;5.00;;;4.37;;
9224;SDS011;4647;48.072;11.616;2024-01-15T14:00:30;6.27;;;4.80;;
9224;SDS011;4647;48.072;11.616;2024-01-15T14:03:02;5.53;;;3.97;;
9224;SDS011;4647;48.072;11.616;2024-01-15T14:05:31;5.70;;;4.63;;
9224;SDS011;4647;48.072;11.616;2024-01-15T14:07:59;5.27;;;4.50;;
9224;SDS011;4647;48.072;11.616;2024-01-15T14:10:28;4.83;;;3.83;;
9224;SDS011;4647;48.072;11.616;2024-01-15T14:12:57;5.57;;;4.23;;
9224;SDS011;4647;48.072;11.616;2024-01-15T14:15:26;4.40;;;3.87;;
9224;SDS011;4647;48.072;11.616;2024-01-15T14:17:55;6.17;;;4.07;;
9224;SDS011;4647;48.072;11.616;2024-01-15T14:20:26;4.90;;;4.10;;
9224;SDS011;4647;48.072;11.616;2024-01-15T14:22:55;4.97;;;4.23;;
9224;SDS011;4647;48.072;11.616;2024-01-15T14:25:24;6.00;;;4.30;;
9224;SDS011;4647;48.072;11.616;2024-01-15T14:27:52;5.30;;;4.00;;
9224;SDS011;4647;48.072;11.616;2024-01-15T14:30:21;5.20;;;4.70;;
9224;SDS011;4647;48.072;11.616;2024-01-15T14:32:49;4.67;;;4.07;;
9224;SDS011;4647;48.072;11.616;2024-01-15T14:35:20;4.77;;;4.27;;
9224;SDS011;4647;48.072;11.616;2024-01-15T14:37:52;4.87;;;4.10;;
9224;SDS011;4647;48.072;11.616;2024-01-15T14:40:22;4.80;;;4.00;;
9224;SDS011;4647;48.072;11.616;2024-01-15T14:42:51;4.77;;;3.90;;
9224;SDS011;4647;48.072;11.616;2024-01-15T14:45:20;4.43;;;4.03;;
9224;SDS011;4647;48.072;11.616;2024-01-15T14:47:48;4.93;;;4.03;;
9224;SDS011;4647;48.072;11.616;2024-01-15T14:50:18;5.00;;;4.50;;
9224;SDS011;4647;48.072;11.616;2024-01-15T14:52:48;4.03;;;3.53;;
9224;SDS011;4647;48.072;11.616;2024-01-15T14:55:19;4.13;;;3.73;;
9224;SDS011;4647;48.072;11.616;2024-01-15T14:57:48;4.43;;;3.80;;
9224;SDS011;4647;48.072;11.616;2024-01-15T15:00:17;4.97;;;3.73;;
9224;SDS011;4647;48.072;11.616;2024-01-15T15:02:46;3.80;;;3.33;;
9224;SDS011;4647;48.072;11.616;2024-01-15T15:05:15;4.37;;;3.50;;
9224;SDS011;4647;48.072;11.616;2024-01-15T15:07:43;5.33;;;3.80;;